Ayersville, North Carolina
Current Conditions -  °F | °C
As of 5:35 PM on Thursday 23 Oct 2014 (Local Time) from KSIF Reporting Station
Clear Clear  
Wind Chill: 64°   Ceiling: Unl
Heat Index: 64°   Visibility: 10mi
Dew Point: 43°   Wind: 6mph
Humidity: 47%   Direction: 320°NW
Pressure: 29.97"   Gusts: NA
Location:  36.4479°N, 79.9473°W
Report Text: KSIF 232135Z AUTO 32005KT 10SM CLR 18/06 A2997 RMK AO2 T01750060
Loading
Personal Weather Stations






























Interactive Weather Map New forecast layout! Learn more

10-Day Weather Forecast

Advertisements
Track Severe Weather on mobile